Time;durP1;ratioP1;P1;durP2;ratioP2;P2;SDS_P1;SDS_P2;PMS_P1;PMS_P2;Temp;Humidity;BMP_temperature;BMP_pressure;BME280_temperature;BME280_humidity;BME280_pressure;Samples;Min_cycle;Max_cycle;Signal;HPM_P1;HPM_P2
2021/11/21 00:00:00;;;;;;;;;;;;;;;;;;351380;28;825;-73
2021/11/21 00:00:12;;;;;;;;;;;;;;;;;;351447;28;888;-72
2021/11/21 00:00:23;;;;;;;;;;;;;;;;;;351558;28;845;-73
2021/11/21 00:00:33;;;;;;;;;;;;;;;;;;351490;28;695;-73
2021/11/21 00:00:44;;;;;;;;;;;;;;;;;;351551;28;1010;-74
2021/11/21 00:00:54;;;;;;;;;;;;;;;;;;351572;28;892;-72
2021/11/21 00:01:05;;;;;;;;;;;;;;;;;;351481;28;868;-73
2021/11/21 00:01:15;;;;;;;;;;;;;;;;;;351564;28;1117;-73
2021/11/21 00:01:26;;;;;;;;;;;;;;;;;;351474;28;1050;-72
2021/11/21 00:01:36;;;;;;;;;;;;;;;;;;351433;28;786;-73
2021/11/21 00:01:46;;;;;;;;;;;;;;;;;;351471;28;802;-71
2021/11/21 00:01:57;;;;;;;;;;;;;;;;;;351576;28;963;-72
2021/11/21 00:02:08;;;;;;;;;;;;;;;;;;351418;28;986;-72
2021/11/21 00:02:18;;;;;;;;;;;;;;;;;;351575;28;964;-72
2021/11/21 00:02:29;;;;;;;;;;;;;;;;;;351448;28;1196;-71
2021/11/21 00:02:39;;;;;;;;;;;;;;;;;;351536;28;805;-72
2021/11/21 00:02:50;;;;;;;;;;;;;;;;;;351578;28;845;-72
2021/11/21 00:03:00;;;;;;;;;;;;;;;;;;351556;28;1022;-72
2021/11/21 00:03:11;;;;;;;;;;;;;;;;;;351546;28;861;-72
2021/11/21 00:03:40;;;;;;;;;;;;;;;;;;351593;28;900;-72
2021/11/21 00:03:50;;;;;;;;;;;;;;;;;;351569;28;877;-72
2021/11/21 00:04:01;;;;;;;;;;;;;;;;;;351523;28;719;-72
2021/11/21 00:04:11;;;;;;;;;;;;;;;;;;351559;28;959;-72
2021/11/21 00:04:22;;;;;;;;;;;;;;;;;;351470;28;836;-72
2021/11/21 00:04:32;;;;;;;;;;;;;;;;;;351014;28;834;-72
2021/11/21 00:04:43;;;;;;;;;;;;;;;;;;351500;28;968;-72
2021/11/21 00:04:53;;;;;;;;;;;;;;;;;;351485;28;964;-72
2021/11/21 00:05:06;;;;;;;;;;;;;;;;;;351447;28;995;-72
2021/11/21 00:05:16;;;;;;;;;;;;;;;;;;351486;28;829;-72
2021/11/21 00:05:27;;;;;;;;;;;;;;;;;;351486;28;1019;-72
2021/11/21 00:05:41;;;;;;;;;;;;;;;;;;352760;28;940;-72
2021/11/21 00:05:51;;;;;;;;;;;;;;;;;;351356;28;1466;-73
2021/11/21 00:06:02;;;;;;;;;;;;;;;;;;351492;28;797;-73
2021/11/21 00:06:14;;;;;;;;;;;;;;;;;;351458;28;868;-71
2021/11/21 00:06:25;;;;;;;;;;;;;;;;;;351538;28;826;-72
2021/11/21 00:06:36;;;;;;;;;;;;;;;;;;351219;28;1042;-72
2021/11/21 00:06:46;;;;;;;;;;;;;;;;;;349881;28;1607;-72
2021/11/21 00:06:57;;;;;;;;;;;;;;;;;;349982;28;997;-72
2021/11/21 00:07:07;;;;;;;;;;;;;;;;;;350034;28;984;-72
2021/11/21 00:07:18;;;;;;;;;;;;;;;;;;350034;28;976;-72
2021/11/21 00:07:28;;;;;;;;;;;;;;;;;;350047;28;1046;-72
2021/11/21 00:07:39;;;;;;;;;;;;;;;;;;348739;28;826;-74
2021/11/21 00:07:49;;;;;;;;;;;;;;;;;;349589;28;841;-72
2021/11/21 00:07:59;;;;;;;;;;;;;;;;;;350006;28;909;-72
2021/11/21 00:08:11;;;;;;;;;;;;;;;;;;350053;28;959;-72
2021/11/21 00:08:21;;;;;;;;;;;;;;;;;;350072;28;946;-74
2021/11/21 00:08:32;;;;;;;;;;;;;;;;;;350711;28;960;-73
2021/11/21 00:08:43;;;;;;;;;;;;;;;;;;351504;28;960;-73
2021/11/21 00:08:53;;;;;;;;;;;;;;;;;;351461;28;908;-72
2021/11/21 00:09:04;;;;;;;;;;;;;;;;;;351480;28;951;-73
2021/11/21 00:09:14;;;;;;;;;;;;;;;;;;351534;28;488;-72
2021/11/21 00:09:28;;;;;;;;;;;;;;;;;;351425;28;971;-72
2021/11/21 00:09:38;;;;;;;;;;;;;;;;;;351421;28;964;-73
2021/11/21 00:09:50;;;;;;;;;;;;;;;;;;351472;28;868;-73
2021/11/21 00:10:01;;;;;;;;;;;;;;;;;;351455;28;991;-72
2021/11/21 00:10:11;;;;;;;;;;;;;;;;;;351362;28;995;-72
2021/11/21 00:10:23;;;;;;;;;;;;;;;;;;351465;28;983;-72
2021/11/21 00:10:49;;;;;;;;;;;;;;;;;;351350;28;995;-72
2021/11/21 00:10:59;;;;;;;;;;;;;;;;;;351373;28;988;-72
2021/11/21 00:11:10;;;;;;;;;;;;;;;;;;351396;28;940;-71
2021/11/21 00:11:20;;;;;;;;;;;;;;;;;;351437;28;801;-73
2021/11/21 00:11:31;;;;;;;;;;;;;;;;;;351454;28;1218;-71
2021/11/21 00:12:33;;;;;;;;;;;;;;;;;;351378;28;797;-72
2021/11/21 00:12:59;;;;;;;;;;;;;;;;;;352796;28;1410;-72
2021/11/21 00:13:10;;;;;;;;;;;;;;;;;;352807;28;766;-72
2021/11/21 00:13:39;;;;;;;;;;;;;;;;;;352738;28;932;-73
2021/11/21 00:13:50;;;;;;;;;;;;;;;;;;352689;28;1170;-72
2021/11/21 00:14:02;;;;;;;;;;;;;;;;;;352796;28;1563;-72
2021/11/21 00:14:13;;;;;;;;;;;;;;;;;;351311;28;986;-72
2021/11/21 00:14:23;;;;;;;;;;;;;;;;;;349955;28;944;-72
2021/11/21 00:15:00;;;;;;;;;;;;;;;;;;350025;28;980;-72
2021/11/21 00:15:10;;;;;;;;;;;;;;;;;;350017;28;908;-72
2021/11/21 00:15:20;;;;;;;;;;;;;;;;;;350033;28;857;-72
2021/11/21 00:15:31;;;;;;;;;;;;;;;;;;349870;28;967;-71
2021/11/21 00:15:42;;;;;;;;;;;;;;;;;;350028;28;992;-72
2021/11/21 00:15:52;;;;;;;;;;;;;;;;;;350040;28;968;-72
2021/11/21 00:16:04;;;;;;;;;;;;;;;;;;350038;28;1007;-72
2021/11/21 00:16:15;;;;;;;;;;;;;;;;;;351484;28;1043;-72
2021/11/21 00:16:25;;;;;;;;;;;;;;;;;;351504;28;1139;-72
2021/11/21 00:16:36;;;;;;;;;;;;;;;;;;352662;28;924;-73
2021/11/21 00:16:46;;;;;;;;;;;;;;;;;;352879;28;849;-71
2021/11/21 00:17:01;;;;;;;;;;;;;;;;;;352702;28;1197;-73
2021/11/21 00:17:11;;;;;;;;;;;;;;;;;;349919;28;1296;-72
2021/11/21 00:17:21;;;;;;;;;;;;;;;;;;349986;28;961;-72
2021/11/21 00:17:32;;;;;;;;;;;;;;;;;;349994;28;987;-72
2021/11/21 00:17:48;;;;;;;;;;;;;;;;;;349922;28;988;-72
2021/11/21 00:17:59;;;;;;;;;;;;;;;;;;350015;28;940;-72
2021/11/21 00:18:10;;;;;;;;;;;;;;;;;;349991;28;1074;-72
2021/11/21 00:18:21;;;;;;;;;;;;;;;;;;349994;28;809;-71
2021/11/21 00:18:31;;;;;;;;;;;;;;;;;;349953;28;1011;-72
2021/11/21 00:18:41;;;;;;;;;;;;;;;;;;350012;28;1031;-71
2021/11/21 00:18:57;;;;;;;;;;;;;;;;;;350037;28;984;-72
2021/11/21 00:19:08;;;;;;;;;;;;;;;;;;351566;28;1035;-72
2021/11/21 00:19:18;;;;;;;;;;;;;;;;;;352901;28;871;-73
2021/11/21 00:19:29;;;;;;;;;;;;;;;;;;352963;28;1011;-72
2021/11/21 00:19:55;;;;;;;;;;;;;;;;;;352936;28;976;-73
2021/11/21 00:20:05;;;;;;;;;;;;;;;;;;352787;28;969;-72
2021/11/21 00:20:16;;;;;;;;;;;;;;;;;;352831;28;972;-72
2021/11/21 00:20:27;;;;;;;;;;;;;;;;;;352873;28;873;-72
2021/11/21 00:20:38;;;;;;;;;;;;;;;;;;352812;28;806;-72
2021/11/21 00:21:04;;;;;;;;;;;;;;;;;;352854;28;1194;-73
2021/11/21 00:21:24;;;;;;;;;;;;;;;;;;352869;28;895;-73
2021/11/21 00:22:01;;;;;;;;;;;;;;;;;;352736;28;798;-71
2021/11/21 00:22:13;;;;;;;;;;;;;;;;;;352749;28;1023;-73
2021/11/21 00:22:25;;;;;;;;;;;;;;;;;;352990;28;841;-72
2021/11/21 00:22:35;;;;;;;;;;;;;;;;;;352895;28;820;-74
2021/11/21 00:22:46;;;;;;;;;;;;;;;;;;352950;28;904;-73
2021/11/21 00:22:56;;;;;;;;;;;;;;;;;;353021;27;797;-71
2021/11/21 00:23:07;;;;;;;;;;;;;;;;;;352868;28;960;-73
2021/11/21 00:23:21;;;;;;;;;;;;;;;;;;352993;28;884;-73
2021/11/21 00:23:31;;;;;;;;;;;;;;;;;;352835;28;1466;-72
2021/11/21 00:23:42;;;;;;;;;;;;;;;;;;352848;28;1132;-72
2021/11/21 00:23:52;;;;;;;;;;;;;;;;;;352846;28;805;-71
2021/11/21 00:24:03;;;;;;;;;;;;;;;;;;351360;28;1282;-73
2021/11/21 00:24:14;;;;;;;;;;;;;;;;;;351363;28;975;-72
2021/11/21 00:24:24;;;;;;;;;;;;;;;;;;351311;28;944;-72
2021/11/21 00:24:38;;;;;;;;;;;;;;;;;;351316;28;975;-72
2021/11/21 00:24:48;;;;;;;;;;;;;;;;;;350041;28;1054;-72
2021/11/21 00:24:59;;;;;;;;;;;;;;;;;;350012;28;986;-72
2021/11/21 00:25:09;;;;;;;;;;;;;;;;;;349994;28;916;-72
2021/11/21 00:25:20;;;;;;;;;;;;;;;;;;350000;28;1058;-72
2021/11/21 00:25:30;;;;;;;;;;;;;;;;;;351202;28;805;-72
2021/11/21 00:25:41;;;;;;;;;;;;;;;;;;351392;28;975;-74
2021/11/21 00:25:51;;;;;;;;;;;;;;;;;;351403;28;1003;-74
2021/11/21 00:26:02;;;;;;;;;;;;;;;;;;352568;28;828;-73
2021/11/21 00:26:13;;;;;;;;;;;;;;;;;;352748;28;984;-73
2021/11/21 00:26:23;;;;;;;;;;;;;;;;;;352764;28;932;-73
2021/11/21 00:26:33;;;;;;;;;;;;;;;;;;352653;28;822;-73
2021/11/21 00:27:02;;;;;;;;;;;;;;;;;;352463;28;1020;-73
2021/11/21 00:27:12;;;;;;;;;;;;;;;;;;352712;28;837;-73
2021/11/21 00:27:23;;;;;;;;;;;;;;;;;;352720;28;975;-72
2021/11/21 00:27:39;;;;;;;;;;;;;;;;;;352882;28;888;-72
2021/11/21 00:27:50;;;;;;;;;;;;;;;;;;352868;28;916;-72
2021/11/21 00:28:00;;;;;;;;;;;;;;;;;;352889;28;817;-72
2021/11/21 00:28:11;;;;;;;;;;;;;;;;;;352783;28;801;-73
2021/11/21 00:28:49;;;;;;;;;;;;;;;;;;352727;28;1044;-73
2021/11/21 00:29:18;;;;;;;;;;;;;;;;;;354289;27;678;-73
2021/11/21 00:29:28;;;;;;;;;;;;;;;;;;354299;27;792;-73
2021/11/21 00:29:38;;;;;;;;;;;;;;;;;;354237;27;813;-74
2021/11/21 00:29:53;;;;;;;;;;;;;;;;;;354211;27;1035;-74
2021/11/21 00:30:04;;;;;;;;;;;;;;;;;;354264;27;927;-73
2021/11/21 00:30:15;;;;;;;;;;;;;;;;;;353124;27;963;-74
2021/11/21 00:30:40;;;;;;;;;;;;;;;;;;354213;27;983;-73
2021/11/21 00:30:51;;;;;;;;;;;;;;;;;;354205;27;864;-72
2021/11/21 00:31:01;;;;;;;;;;;;;;;;;;352704;28;805;-72
2021/11/21 00:31:32;;;;;;;;;;;;;;;;;;354125;27;1173;-72
2021/11/21 00:31:43;;;;;;;;;;;;;;;;;;348496;28;1159;-72
2021/11/21 00:31:53;;;;;;;;;;;;;;;;;;348656;28;826;-72
2021/11/21 00:32:04;;;;;;;;;;;;;;;;;;348501;28;997;-72
2021/11/21 00:32:14;;;;;;;;;;;;;;;;;;348524;28;995;-72
2021/11/21 00:32:24;;;;;;;;;;;;;;;;;;348504;28;884;-72
2021/11/21 00:32:35;;;;;;;;;;;;;;;;;;348542;28;983;-72
2021/11/21 00:33:12;;;;;;;;;;;;;;;;;;347524;28;806;-72
2021/11/21 00:33:22;;;;;;;;;;;;;;;;;;347136;28;937;-73
2021/11/21 00:33:33;;;;;;;;;;;;;;;;;;347265;28;803;-73
2021/11/21 00:33:43;;;;;;;;;;;;;;;;;;347252;28;857;-72
2021/11/21 00:33:54;;;;;;;;;;;;;;;;;;347266;28;814;-71
2021/11/21 00:34:04;;;;;;;;;;;;;;;;;;347130;28;973;-72
2021/11/21 00:34:15;;;;;;;;;;;;;;;;;;347153;28;874;-72
2021/11/21 00:34:25;;;;;;;;;;;;;;;;;;347234;28;1046;-72
2021/11/21 00:34:36;;;;;;;;;;;;;;;;;;345779;28;866;-72
2021/11/21 00:34:47;;;;;;;;;;;;;;;;;;345820;28;913;-73
2021/11/21 00:34:58;;;;;;;;;;;;;;;;;;345914;28;881;-73
2021/11/21 00:35:09;;;;;;;;;;;;;;;;;;345789;28;862;-72
2021/11/21 00:35:19;;;;;;;;;;;;;;;;;;345816;28;951;-72
2021/11/21 00:35:45;;;;;;;;;;;;;;;;;;345768;28;861;-72
2021/11/21 00:35:55;;;;;;;;;;;;;;;;;;345814;28;814;-72
2021/11/21 00:36:06;;;;;;;;;;;;;;;;;;345744;28;874;-72
2021/11/21 00:36:16;;;;;;;;;;;;;;;;;;345824;28;944;-72
2021/11/21 00:36:39;;;;;;;;;;;;;;;;;;345833;28;889;-73
2021/11/21 00:36:49;;;;;;;;;;;;;;;;;;347211;28;870;-74
2021/11/21 00:37:00;;;;;;;;;;;;;;;;;;347229;28;959;-74
2021/11/21 00:37:10;;;;;;;;;;;;;;;;;;347162;28;801;-74
2021/11/21 00:37:21;;;;;;;;;;;;;;;;;;347134;28;897;-72
2021/11/21 00:37:31;;;;;;;;;;;;;;;;;;347067;28;976;-72
2021/11/21 00:37:41;;;;;;;;;;;;;;;;;;347036;28;980;-72
2021/11/21 00:37:52;;;;;;;;;;;;;;;;;;347170;28;818;-72
2021/11/21 00:38:02;;;;;;;;;;;;;;;;;;347203;28;960;-72
2021/11/21 00:38:13;;;;;;;;;;;;;;;;;;348579;28;826;-72
2021/11/21 00:38:23;;;;;;;;;;;;;;;;;;348511;28;920;-73
2021/11/21 00:38:34;;;;;;;;;;;;;;;;;;348476;28;928;-72
2021/11/21 00:38:44;;;;;;;;;;;;;;;;;;348422;28;1231;-72
2021/11/21 00:38:54;;;;;;;;;;;;;;;;;;348579;28;1016;-72
2021/11/21 00:39:05;;;;;;;;;;;;;;;;;;348561;28;834;-72
2021/11/21 00:39:15;;;;;;;;;;;;;;;;;;348576;28;1012;-72
2021/11/21 00:39:44;;;;;;;;;;;;;;;;;;348505;28;869;-72
2021/11/21 00:39:56;;;;;;;;;;;;;;;;;;348348;28;1977;-73
2021/11/21 00:40:07;;;;;;;;;;;;;;;;;;347775;28;1179;-72
2021/11/21 00:40:17;;;;;;;;;;;;;;;;;;347175;28;1039;-72
2021/11/21 00:40:28;;;;;;;;;;;;;;;;;;345765;28;937;-72
2021/11/21 00:40:52;;;;;;;;;;;;;;;;;;344357;28;1373;-71
2021/11/21 00:41:03;;;;;;;;;;;;;;;;;;344538;28;802;-73
2021/11/21 00:41:13;;;;;;;;;;;;;;;;;;344571;28;799;-75
2021/11/21 00:41:24;;;;;;;;;;;;;;;;;;344509;28;933;-73
2021/11/21 00:41:34;;;;;;;;;;;;;;;;;;344471;28;826;-73
2021/11/21 00:41:45;;;;;;;;;;;;;;;;;;343077;28;1176;-74
2021/11/21 00:41:55;;;;;;;;;;;;;;;;;;343181;28;842;-73
2021/11/21 00:42:06;;;;;;;;;;;;;;;;;;343114;28;858;-73
2021/11/21 00:42:16;;;;;;;;;;;;;;;;;;343163;28;1037;-73
2021/11/21 00:42:27;;;;;;;;;;;;;;;;;;342699;28;1302;-73
2021/11/21 00:43:03;;;;;;;;;;;;;;;;;;344421;28;1267;-73
2021/11/21 00:43:14;;;;;;;;;;;;;;;;;;344493;28;1008;-72
2021/11/21 00:43:24;;;;;;;;;;;;;;;;;;344460;28;913;-72
2021/11/21 00:43:35;;;;;;;;;;;;;;;;;;344486;28;937;-72
2021/11/21 00:43:45;;;;;;;;;;;;;;;;;;345676;28;973;-71
2021/11/21 00:43:56;;;;;;;;;;;;;;;;;;344369;28;1352;-71
2021/11/21 00:44:25;;;;;;;;;;;;;;;;;;344426;28;957;-72
2021/11/21 00:44:36;;;;;;;;;;;;;;;;;;344854;28;866;-72
2021/11/21 00:44:46;;;;;;;;;;;;;;;;;;344437;28;1001;-74
2021/11/21 00:44:56;;;;;;;;;;;;;;;;;;344631;28;890;-72
2021/11/21 00:45:08;;;;;;;;;;;;;;;;;;345799;28;1090;-73
2021/11/21 00:45:45;;;;;;;;;;;;;;;;;;345806;28;869;-73
2021/11/21 00:45:55;;;;;;;;;;;;;;;;;;346855;28;937;-73
2021/11/21 00:46:06;;;;;;;;;;;;;;;;;;347187;28;862;-73
2021/11/21 00:46:16;;;;;;;;;;;;;;;;;;347258;28;814;-72
2021/11/21 00:46:26;;;;;;;;;;;;;;;;;;347180;28;766;-73
2021/11/21 00:46:57;;;;;;;;;;;;;;;;;;348329;28;961;-73
2021/11/21 00:47:34;;;;;;;;;;;;;;;;;;347008;28;1203;-73
2021/11/21 00:47:44;;;;;;;;;;;;;;;;;;347067;28;988;-73
2021/11/21 00:47:55;;;;;;;;;;;;;;;;;;347225;28;961;-72
2021/11/21 00:48:33;;;;;;;;;;;;;;;;;;346657;28;992;-73
2021/11/21 00:48:43;;;;;;;;;;;;;;;;;;345808;28;894;-72
2021/11/21 00:48:54;;;;;;;;;;;;;;;;;;345725;28;933;-72
2021/11/21 00:49:11;;;;;;;;;;;;;;;;;;345843;28;831;-72
2021/11/21 00:49:21;;;;;;;;;;;;;;;;;;345834;28;838;-73
2021/11/21 00:49:32;;;;;;;;;;;;;;;;;;346861;28;925;-72
2021/11/21 00:49:43;;;;;;;;;;;;;;;;;;347140;28;1314;-73
2021/11/21 00:49:53;;;;;;;;;;;;;;;;;;347154;28;938;-73
2021/11/21 00:50:05;;;;;;;;;;;;;;;;;;345834;28;831;-72
2021/11/21 00:50:16;;;;;;;;;;;;;;;;;;345780;28;981;-73
2021/11/21 00:50:28;;;;;;;;;;;;;;;;;;345857;28;791;-72
2021/11/21 00:50:38;;;;;;;;;;;;;;;;;;345740;28;1078;-73
2021/11/21 00:50:51;;;;;;;;;;;;;;;;;;345858;28;933;-72
2021/11/21 00:51:02;;;;;;;;;;;;;;;;;;345712;28;1044;-73
2021/11/21 00:51:13;;;;;;;;;;;;;;;;;;345744;28;827;-73
2021/11/21 00:51:23;;;;;;;;;;;;;;;;;;345770;28;834;-73
2021/11/21 00:51:35;;;;;;;;;;;;;;;;;;344456;28;977;-72
2021/11/21 00:51:46;;;;;;;;;;;;;;;;;;344460;28;993;-74
2021/11/21 00:51:57;;;;;;;;;;;;;;;;;;344694;28;1028;-72
2021/11/21 00:52:08;;;;;;;;;;;;;;;;;;345879;28;854;-72
2021/11/21 00:52:21;;;;;;;;;;;;;;;;;;345809;28;791;-73
2021/11/21 00:52:34;;;;;;;;;;;;;;;;;;345794;28;838;-72
2021/11/21 00:52:46;;;;;;;;;;;;;;;;;;345703;28;985;-72
2021/11/21 00:53:07;;;;;;;;;;;;;;;;;;345796;28;917;-72
2021/11/21 00:53:18;;;;;;;;;;;;;;;;;;345657;28;1071;-72
2021/11/21 00:53:30;;;;;;;;;;;;;;;;;;346271;28;862;-73
2021/11/21 00:53:43;;;;;;;;;;;;;;;;;;347230;28;948;-74
2021/11/21 00:54:04;;;;;;;;;;;;;;;;;;347131;28;1040;-73
2021/11/21 00:55:10;;;;;;;;;;;;;;;;;;343086;28;1072;-73
2021/11/21 00:55:31;;;;;;;;;;;;;;;;;;343031;28;985;-72
2021/11/21 00:56:14;;;;;;;;;;;;;;;;;;344448;28;1040;-74
2021/11/21 00:56:23;;;;;;;;;;;;;;;;;;342848;28;1071;-72
2021/11/21 00:56:25;;;;;;;;;;;;;;;;;;344702;28;1115;-72
2021/11/21 00:56:35;;;;;;;;;;;;;;;;;;347104;28;968;-73
2021/11/21 00:56:46;;;;;;;;;;;;;;;;;;347175;28;806;-74
2021/11/21 00:56:56;;;;;;;;;;;;;;;;;;347152;28;928;-73
2021/11/21 00:57:33;;;;;;;;;;;;;;;;;;347189;28;965;-73
2021/11/21 00:57:44;;;;;;;;;;;;;;;;;;346943;28;591;-73
2021/11/21 00:57:54;;;;;;;;;;;;;;;;;;347045;28;941;-74
2021/11/21 00:58:09;;;;;;;;;;;;;;;;;;347194;28;949;-74
2021/11/21 00:58:22;;;;;;;;;;;;;;;;;;347217;28;925;-74
2021/11/21 00:58:52;;;;;;;;;;;;;;;;;;347025;28;1088;-72
2021/11/21 00:59:03;;;;;;;;;;;;;;;;;;344437;28;1179;-73
2021/11/21 00:59:13;;;;;;;;;;;;;;;;;;344447;28;1218;-72
2021/11/21 00:59:24;;;;;;;;;;;;;;;;;;344399;28;1106;-74
2021/11/21 00:59:34;;;;;;;;;;;;;;;;;;344430;28;899;-72
2021/11/21 00:59:45;;;;;;;;;;;;;;;;;;344483;28;1005;-73
2021/11/21 00:59:56;;;;;;;;;;;;;;;;;;344278;28;1894;-72
2021/11/21 01:00:10;;;;;;;;;;;;;;;;;;344427;28;966;-72
2021/11/21 01:00:20;;;;;;;;;;;;;;;;;;347152;28;1000;-76
2021/11/21 01:00:31;;;;;;;;;;;;;;;;;;348453;28;1113;-73
2021/11/21 01:00:43;;;;;;;;;;;;;;;;;;348544;28;984;-73
2021/11/21 01:00:54;;;;;;;;;;;;;;;;;;348551;28;1048;-72
2021/11/21 01:01:05;;;;;;;;;;;;;;;;;;348524;28;1032;-72
2021/11/21 01:01:27;;;;;;;;;;;;;;;;;;348551;28;916;-72
2021/11/21 01:01:38;;;;;;;;;;;;;;;;;;348552;28;989;-72
2021/11/21 01:01:50;;;;;;;;;;;;;;;;;;348520;28;964;-73
2021/11/21 01:02:06;;;;;;;;;;;;;;;;;;348594;28;853;-72
2021/11/21 01:02:16;;;;;;;;;;;;;;;;;;348485;28;1008;-71
2021/11/21 01:02:27;;;;;;;;;;;;;;;;;;347816;28;913;-72
2021/11/21 01:02:55;;;;;;;;;;;;;;;;;;347070;28;972;-72
2021/11/21 01:03:07;;;;;;;;;;;;;;;;;;347034;28;925;-72
2021/11/21 01:03:19;;;;;;;;;;;;;;;;;;347123;28;961;-73
2021/11/21 01:03:29;;;;;;;;;;;;;;;;;;347087;28;1028;-73
2021/11/21 01:03:40;;;;;;;;;;;;;;;;;;345838;28;968;-72
2021/11/21 01:03:52;;;;;;;;;;;;;;;;;;345814;28;985;-72
2021/11/21 01:04:28;;;;;;;;;;;;;;;;;;345665;28;877;-73
2021/11/21 01:04:41;;;;;;;;;;;;;;;;;;344419;28;993;-74
2021/11/21 01:04:52;;;;;;;;;;;;;;;;;;344494;28;834;-74
2021/11/21 01:05:02;;;;;;;;;;;;;;;;;;345777;28;842;-73
2021/11/21 01:05:13;;;;;;;;;;;;;;;;;;345858;28;830;-74
2021/11/21 01:05:23;;;;;;;;;;;;;;;;;;345770;28;1056;-73
2021/11/21 01:05:41;;;;;;;;;;;;;;;;;;346283;28;992;-73
2021/11/21 01:05:53;;;;;;;;;;;;;;;;;;347171;28;929;-73
2021/11/21 01:06:23;;;;;;;;;;;;;;;;;;347256;28;616;-73
2021/11/21 01:06:33;;;;;;;;;;;;;;;;;;347343;28;993;-72
2021/11/21 01:06:44;;;;;;;;;;;;;;;;;;348539;28;904;-73
2021/11/21 01:06:54;;;;;;;;;;;;;;;;;;348436;28;870;-74
2021/11/21 01:07:05;;;;;;;;;;;;;;;;;;347183;28;1039;-73
2021/11/21 01:07:17;;;;;;;;;;;;;;;;;;347203;28;815;-73
2021/11/21 01:07:28;;;;;;;;;;;;;;;;;;347160;28;985;-72
2021/11/21 01:08:31;;;;;;;;;;;;;;;;;;347057;28;905;-72
2021/11/21 01:09:00;;;;;;;;;;;;;;;;;;347209;28;846;-74
2021/11/21 01:09:11;;;;;;;;;;;;;;;;;;347099;28;1468;-73
2021/11/21 01:09:24;;;;;;;;;;;;;;;;;;347118;28;913;-72
2021/11/21 01:09:34;;;;;;;;;;;;;;;;;;347188;28;818;-73
2021/11/21 01:09:45;;;;;;;;;;;;;;;;;;347159;28;802;-73
2021/11/21 01:09:55;;;;;;;;;;;;;;;;;;347198;28;1004;-73
2021/11/21 01:10:07;;;;;;;;;;;;;;;;;;352692;28;783;-73
2021/11/21 01:10:19;;;;;;;;;;;;;;;;;;352758;28;936;-73
2021/11/21 01:10:31;;;;;;;;;;;;;;;;;;352694;28;955;-72
2021/11/21 01:10:52;;;;;;;;;;;;;;;;;;351395;28;999;-72
2021/11/21 01:11:04;;;;;;;;;;;;;;;;;;351302;28;921;-72
2021/11/21 01:11:14;;;;;;;;;;;;;;;;;;352756;28;909;-73
2021/11/21 01:11:25;;;;;;;;;;;;;;;;;;352833;28;1043;-73
2021/11/21 01:11:35;;;;;;;;;;;;;;;;;;352791;28;1035;-72
2021/11/21 01:11:45;;;;;;;;;;;;;;;;;;352741;28;952;-72
2021/11/21 01:11:57;;;;;;;;;;;;;;;;;;352744;28;924;-72
2021/11/21 01:12:08;;;;;;;;;;;;;;;;;;352792;28;1000;-72
2021/11/21 01:12:18;;;;;;;;;;;;;;;;;;352698;28;1008;-73
2021/11/21 01:12:28;;;;;;;;;;;;;;;;;;352675;28;976;-74
2021/11/21 01:12:42;;;;;;;;;;;;;;;;;;352120;28;1274;-73
2021/11/21 01:12:54;;;;;;;;;;;;;;;;;;351481;28;940;-73
2021/11/21 01:13:04;;;;;;;;;;;;;;;;;;351359;28;822;-72
2021/11/21 01:13:18;;;;;;;;;;;;;;;;;;351288;28;857;-72
2021/11/21 01:13:28;;;;;;;;;;;;;;;;;;351305;28;1597;-72
2021/11/21 01:13:39;;;;;;;;;;;;;;;;;;351368;28;1653;-72
2021/11/21 01:13:49;;;;;;;;;;;;;;;;;;351412;28;814;-72
2021/11/21 01:14:00;;;;;;;;;;;;;;;;;;351360;28;790;-73
2021/11/21 01:14:10;;;;;;;;;;;;;;;;;;351330;28;1051;-72
2021/11/21 01:14:39;;;;;;;;;;;;;;;;;;351361;28;670;-73
2021/11/21 01:15:18;;;;;;;;;;;;;;;;;;351320;28;885;-73
2021/11/21 01:15:29;;;;;;;;;;;;;;;;;;351325;28;836;-72
2021/11/21 01:15:39;;;;;;;;;;;;;;;;;;351478;28;503;-73
2021/11/21 01:15:50;;;;;;;;;;;;;;;;;;351470;28;896;-72
2021/11/21 01:16:00;;;;;;;;;;;;;;;;;;351396;28;1035;-73
2021/11/21 01:16:11;;;;;;;;;;;;;;;;;;351290;28;951;-72
2021/11/21 01:16:21;;;;;;;;;;;;;;;;;;351349;28;818;-73
2021/11/21 01:16:32;;;;;;;;;;;;;;;;;;351294;28;869;-71
2021/11/21 01:16:42;;;;;;;;;;;;;;;;;;351313;28;988;-72
2021/11/21 01:17:19;;;;;;;;;;;;;;;;;;351292;28;940;-72
2021/11/21 01:17:30;;;;;;;;;;;;;;;;;;351325;28;964;-72
2021/11/21 01:17:40;;;;;;;;;;;;;;;;;;351225;28;932;-74
2021/11/21 01:17:53;;;;;;;;;;;;;;;;;;351338;28;899;-73
2021/11/21 01:18:03;;;;;;;;;;;;;;;;;;351517;28;908;-72
2021/11/21 01:18:14;;;;;;;;;;;;;;;;;;351392;28;802;-73
2021/11/21 01:18:25;;;;;;;;;;;;;;;;;;351250;28;976;-72
2021/11/21 01:18:36;;;;;;;;;;;;;;;;;;351382;28;972;-72
2021/11/21 01:18:46;;;;;;;;;;;;;;;;;;351408;28;866;-72
2021/11/21 01:18:57;;;;;;;;;;;;;;;;;;351448;28;841;-72
2021/11/21 01:19:07;;;;;;;;;;;;;;;;;;351395;28;964;-73
2021/11/21 01:19:18;;;;;;;;;;;;;;;;;;351437;28;897;-72
2021/11/21 01:19:28;;;;;;;;;;;;;;;;;;351442;28;829;-72
2021/11/21 01:19:43;;;;;;;;;;;;;;;;;;351336;28;901;-73
2021/11/21 01:19:59;;;;;;;;;;;;;;;;;;351225;28;1943;-72
2021/11/21 01:20:10;;;;;;;;;;;;;;;;;;349901;28;1012;-72
2021/11/21 01:20:22;;;;;;;;;;;;;;;;;;349918;28;936;-72
2021/11/21 01:20:50;;;;;;;;;;;;;;;;;;349975;28;620;-73
2021/11/21 01:21:01;;;;;;;;;;;;;;;;;;349990;28;972;-72
2021/11/21 01:21:11;;;;;;;;;;;;;;;;;;349953;28;972;-74
2021/11/21 01:21:22;;;;;;;;;;;;;;;;;;350035;28;884;-73
2021/11/21 01:21:32;;;;;;;;;;;;;;;;;;350284;28;861;-74
2021/11/21 01:22:09;;;;;;;;;;;;;;;;;;351345;28;861;-72
2021/11/21 01:22:19;;;;;;;;;;;;;;;;;;351357;28;794;-73
2021/11/21 01:22:57;;;;;;;;;;;;;;;;;;351339;28;793;-73
2021/11/21 01:23:10;;;;;;;;;;;;;;;;;;351352;28;872;-71
2021/11/21 01:23:20;;;;;;;;;;;;;;;;;;351234;28;928;-72
2021/11/21 01:23:31;;;;;;;;;;;;;;;;;;351265;28;789;-74
2021/11/21 01:23:41;;;;;;;;;;;;;;;;;;351360;28;904;-73
2021/11/21 01:23:53;;;;;;;;;;;;;;;;;;351309;28;909;-72
2021/11/21 01:24:03;;;;;;;;;;;;;;;;;;351321;28;1162;-72
2021/11/21 01:24:14;;;;;;;;;;;;;;;;;;351406;28;1008;-73
2021/11/21 01:24:25;;;;;;;;;;;;;;;;;;351217;28;905;-73
2021/11/21 01:24:35;;;;;;;;;;;;;;;;;;351267;28;1042;-73
2021/11/21 01:24:45;;;;;;;;;;;;;;;;;;351343;28;964;-73
2021/11/21 01:24:56;;;;;;;;;;;;;;;;;;351307;28;1195;-73
2021/11/21 01:25:07;;;;;;;;;;;;;;;;;;352670;28;1535;-73
2021/11/21 01:25:19;;;;;;;;;;;;;;;;;;352767;28;927;-72
2021/11/21 01:25:29;;;;;;;;;;;;;;;;;;352746;28;980;-72
2021/11/21 01:25:40;;;;;;;;;;;;;;;;;;352625;28;1149;-72
2021/11/21 01:25:51;;;;;;;;;;;;;;;;;;352717;28;841;-74
2021/11/21 01:26:01;;;;;;;;;;;;;;;;;;352733;28;924;-72
2021/11/21 01:26:12;;;;;;;;;;;;;;;;;;352723;28;844;-74
2021/11/21 01:26:23;;;;;;;;;;;;;;;;;;353829;27;940;-73
2021/11/21 01:26:33;;;;;;;;;;;;;;;;;;353994;27;1035;-73
2021/11/21 01:26:44;;;;;;;;;;;;;;;;;;354089;27;980;-73
2021/11/21 01:26:54;;;;;;;;;;;;;;;;;;354150;27;825;-73
2021/11/21 01:27:05;;;;;;;;;;;;;;;;;;352213;27;785;-73
2021/11/21 01:27:15;;;;;;;;;;;;;;;;;;351454;28;774;-72
2021/11/21 01:27:26;;;;;;;;;;;;;;;;;;351487;28;754;-72
2021/11/21 01:27:37;;;;;;;;;;;;;;;;;;351415;28;865;-73
2021/11/21 01:28:14;;;;;;;;;;;;;;;;;;351168;28;897;-73
2021/11/21 01:28:25;;;;;;;;;;;;;;;;;;351266;28;897;-72
2021/11/21 01:28:35;;;;;;;;;;;;;;;;;;351105;28;1000;-73
2021/11/21 01:28:45;;;;;;;;;;;;;;;;;;351349;28;1028;-74
2021/11/21 01:28:56;;;;;;;;;;;;;;;;;;351340;28;992;-72
2021/11/21 01:29:06;;;;;;;;;;;;;;;;;;351371;28;462;-72
2021/11/21 01:29:17;;;;;;;;;;;;;;;;;;349920;28;790;-73
2021/11/21 01:29:27;;;;;;;;;;;;;;;;;;349964;28;924;-74
2021/11/21 01:29:37;;;;;;;;;;;;;;;;;;349926;28;794;-73
2021/11/21 01:29:48;;;;;;;;;;;;;;;;;;349952;28;864;-73
2021/11/21 01:29:58;;;;;;;;;;;;;;;;;;349943;28;971;-73
2021/11/21 01:30:11;;;;;;;;;;;;;;;;;;350481;28;816;-73
2021/11/21 01:30:28;;;;;;;;;;;;;;;;;;351400;28;852;-72
2021/11/21 01:30:39;;;;;;;;;;;;;;;;;;351315;28;950;-73
2021/11/21 01:30:50;;;;;;;;;;;;;;;;;;351399;28;786;-72
2021/11/21 01:31:04;;;;;;;;;;;;;;;;;;351290;28;947;-72
2021/11/21 01:31:33;;;;;;;;;;;;;;;;;;351411;28;931;-73
2021/11/21 01:31:47;;;;;;;;;;;;;;;;;;351445;28;824;-74
2021/11/21 01:31:57;;;;;;;;;;;;;;;;;;351412;28;1027;-73
2021/11/21 01:32:08;;;;;;;;;;;;;;;;;;351460;28;923;-72
2021/11/21 01:32:22;;;;;;;;;;;;;;;;;;351281;28;853;-72
2021/11/21 01:32:32;;;;;;;;;;;;;;;;;;351212;28;821;-72
2021/11/21 01:33:12;;;;;;;;;;;;;;;;;;351299;28;1217;-72
2021/11/21 01:33:22;;;;;;;;;;;;;;;;;;351380;28;872;-72
2021/11/21 01:33:33;;;;;;;;;;;;;;;;;;351272;28;959;-73
2021/11/21 01:33:43;;;;;;;;;;;;;;;;;;351273;28;785;-73
2021/11/21 01:33:53;;;;;;;;;;;;;;;;;;349917;28;943;-72
2021/11/21 01:34:04;;;;;;;;;;;;;;;;;;349936;28;964;-73
2021/11/21 01:34:18;;;;;;;;;;;;;;;;;;351118;28;955;-74
2021/11/21 01:34:28;;;;;;;;;;;;;;;;;;351276;28;908;-74
2021/11/21 01:34:38;;;;;;;;;;;;;;;;;;351250;28;836;-74
2021/11/21 01:34:49;;;;;;;;;;;;;;;;;;351315;28;931;-73
2021/11/21 01:34:59;;;;;;;;;;;;;;;;;;351420;28;813;-72
2021/11/21 01:35:10;;;;;;;;;;;;;;;;;;351329;28;853;-74
2021/11/21 01:35:21;;;;;;;;;;;;;;;;;;351343;28;801;-74
2021/11/21 01:35:32;;;;;;;;;;;;;;;;;;351259;28;963;-74
2021/11/21 01:35:42;;;;;;;;;;;;;;;;;;349886;28;1342;-72
2021/11/21 01:35:53;;;;;;;;;;;;;;;;;;349891;28;844;-72
2021/11/21 01:36:07;;;;;;;;;;;;;;;;;;349981;28;1015;-72